Portada
METAR-TAF:

METAR-TAF

Aeroports :

Aeroport Internacional Diori Hamani

Niamey, Níger

latitud: 13-29N, longitud: 002-10E, altitud: 223 m

Observació

L'informe es va fer fa 47 minuts, a les 03:00 UTC
Vent 4 kt del Nord/Nord-Est
Temperatura 25°C
Humitat 26%
Pressió 1010 hPa
Visibilitat 10 km o més
sense núvols per sota de 1500 mi sense presència de cumulonimbus.

METAR: DRRN 210300Z 02004KT CAVOK 25/04 Q1010 NOSIG

Hora: 04:47 (03:47 UTC)

Pronòstic

L'informe es va fer fa 4 hores i 47 minuts, a les 23:00 UTC
Pronòstic vàlid del 21 a les 00 UTC al 22 a les 06 UTC
Vent 8 kt del Nord
Visibilitat: 8000 m
Temporalment
l' 21 a les 07 UTC al 21 a les 12 UTC
Vent 18 kt del Est/Nord-Est
Visibilitat: 3500 m
torb alta de pols
Temporalment
l' 21 a les 17 UTC al 21 a les 19 UTC
Visibilitat: 4000 m
Pols estès

TAF: DRRN 202300Z 2100/2206 36008KT 8000 NSC TEMPO 2107/2112 06018KT 3500 BLDU TEMPO 2117/2119 4000 DU

Observacions i pronòstics meteorològics de més de 4000 aeroports (METAR i TAF).

Les estacions disponibles són els punts grocs i vermells al mapa.

Posi el ratolí al punt desitjat per veure el nom de l'estació.

Feu clic per veure les observacions i els pronòstics meteorològics.

Per canviar el mapa: feu clic els botons verds amb una creu de color negre per apropar; al botó verd amb un guió per allunyar la imatge; o en les fletxes verdes per a mapes adjacents.


METAR-TAF: